Stations météo

Publicité
Kinbrace, Grande-Bretagne (99016): Température de l'air & dewpoint: 14.06.2018 08:00:00 - 20.06.2018 08:00:00 (BST)Kinbrace, Grande-Bretagne (99016): Vitesse du vent & gusts: 14.06.2018 08:00:00 - 20.06.2018 08:00:00 (BST)Kinbrace, Grande-Bretagne (99016): Direction du vent: 14.06.2018 08:00:00 - 20.06.2018 08:00:00 (BST)Kinbrace, Grande-Bretagne (99016): Quantités de précipitations: 14.06.2018 08:00:00 - 20.06.2018 08:00:00 (BST)
Date & Time tt [°C] td [°C] ff [km/h] ff [knt] fx [km/h] fx [knt] dd rr [mm]
20.06.2018 08:00:00 - - - - - - - -
20.06.2018 07:00:00 8,1 7,9 4 2 - - NNW 1,8
20.06.2018 06:00:00 7,8 7,6 5 3 - - NNW 0,4
20.06.2018 05:00:00 7,6 7,1 4 2 - - SW 0,8
20.06.2018 04:00:00 - - - - - - - -
20.06.2018 03:00:00 - - - - - - - -
20.06.2018 02:00:00 7,7 6,3 2 1 - - ESE 0,2
20.06.2018 01:00:00 8,1 5,5 2 1 - - N 0,0
20.06.2018 00:00:00 8,5 5,2 2 1 - - SE 0,0
19.06.2018 23:00:00 9,2 5,2 5 3 - - NW 0,0
19.06.2018 22:00:00 - - - - - - - 0,0
19.06.2018 21:00:00 - - - - - - - 0,0
19.06.2018 20:00:00 - - - - - - - 0,0
19.06.2018 19:00:00 - - - - - - - 0,0
19.06.2018 18:00:00 - - - - - - - 0,0
19.06.2018 17:00:00 - - - - - - - 0,0
19.06.2018 16:00:00 - - - - - - - 0,0
19.06.2018 15:00:00 - - - - - - - 0,0
19.06.2018 14:00:00 - - - - - - - 0,0
19.06.2018 13:00:00 - - - - - - - 0,0
19.06.2018 12:00:00 - - - - - - - 0,0
19.06.2018 11:00:00 13,8 7,1 35 19 61 33 W 0,0
19.06.2018 10:00:00 13,0 6,6 37 20 52 28 W 0,0
19.06.2018 09:00:00 11,5 6,0 29 16 46 25 W 0,0
19.06.2018 08:00:00 11,4 6,0 28 15 - - WSW 0,0
19.06.2018 07:00:00 10,0 5,6 26 14 52 28 W 0,0
19.06.2018 06:00:00 9,3 5,1 31 17 48 26 W 0,0
19.06.2018 05:00:00 8,5 4,8 24 13 - - W 0,0
19.06.2018 04:00:00 8,3 5,6 22 12 46 25 W 0,0
19.06.2018 03:00:00 7,7 5,0 21 11 - - W 0,0
19.06.2018 02:00:00 8,0 4,4 21 11 - - W 0,0
19.06.2018 01:00:00 8,0 5,2 18 10 - - W -
19.06.2018 00:00:00 8,9 5,1 29 16 55 30 W -
18.06.2018 23:00:00 8,9 5,8 21 11 54 29 W 0,0
18.06.2018 22:00:00 9,3 5,6 28 15 55 30 W 0,0
18.06.2018 21:00:00 10,7 5,1 31 17 57 31 W 0,0
18.06.2018 20:00:00 11,0 5,5 34 18 61 33 W 0,0
18.06.2018 19:00:00 12,8 4,9 39 21 65 35 W 0,0
18.06.2018 18:00:00 13,4 5,7 34 18 63 34 W 0,0
18.06.2018 17:00:00 13,1 6,9 39 21 63 34 WSW 0,0
18.06.2018 16:00:00 14,1 4,7 35 19 61 33 WSW 0,0
18.06.2018 15:00:00 15,2 6,4 41 22 61 33 W 0,0
18.06.2018 14:00:00 14,8 5,2 37 20 55 30 W 0,0
18.06.2018 13:00:00 14,6 6,3 28 15 50 27 W 0,0
18.06.2018 12:00:00 14,0 6,6 35 19 54 29 W 0,0
18.06.2018 11:00:00 13,1 5,3 26 14 46 25 W 0,0
18.06.2018 10:00:00 12,8 5,8 26 14 - - WSW 0,0
18.06.2018 09:00:00 11,5 7,1 29 16 50 27 W 0,0
18.06.2018 08:00:00 11,1 6,4 28 15 50 27 W 0,0
18.06.2018 07:00:00 11,0 6,1 29 16 50 27 W 0,0
18.06.2018 06:00:00 11,0 6,2 29 16 46 25 W 0,0
18.06.2018 05:00:00 10,6 6,7 29 16 50 27 W 0,0
18.06.2018 04:00:00 10,7 7,2 21 11 46 25 SW 0,0
18.06.2018 03:00:00 11,2 7,5 29 16 - - WSW 0,0
18.06.2018 02:00:00 11,6 8,7 31 17 48 26 W 0,0
18.06.2018 01:00:00 12,3 10,3 16 9 - - W 0,0
18.06.2018 00:00:00 12,3 11,2 5 3 - - S 0,0
17.06.2018 23:00:00 12,9 10,4 11 6 - - S 0,0
17.06.2018 22:00:00 12,9 10,1 24 13 - - SE 0,0
17.06.2018 21:00:00 12,5 10,1 24 13 - - SE 0,2
17.06.2018 20:00:00 12,8 9,7 24 13 - - SSE 0,0
17.06.2018 19:00:00 14,3 9,2 18 10 - - SE 0,0
17.06.2018 18:00:00 15,1 8,8 24 13 - - S 0,0
17.06.2018 17:00:00 15,8 8,4 18 10 - - S 0,0
17.06.2018 16:00:00 15,9 9,2 13 7 - - S 0,0
17.06.2018 15:00:00 16,6 8,1 13 7 - - WSW 0,0
17.06.2018 14:00:00 15,9 8,3 13 7 - - SW 0,0
17.06.2018 13:00:00 14,9 8,6 18 10 - - S 0,0
17.06.2018 12:00:00 15,7 8,6 11 6 - - S 0,0
17.06.2018 11:00:00 15,2 6,9 11 6 - - S 0,0
17.06.2018 10:00:00 14,3 8,6 8 4 - - S 0,0
17.06.2018 09:00:00 12,7 9,4 2 1 - - S 0,0
17.06.2018 08:00:00 11,7 9,4 2 1 - - E 0,0
17.06.2018 07:00:00 10,9 10,5 4 2 - - SW 0,0
17.06.2018 06:00:00 10,2 9,8 0 0 - - N 0,0
17.06.2018 05:00:00 9,7 9,4 0 0 - - N 0,0
17.06.2018 04:00:00 9,7 9,2 2 1 - - ENE 0,0
17.06.2018 03:00:00 10,0 9,3 5 3 - - E 0,0
17.06.2018 02:00:00 10,4 9,3 2 1 - - E 0,0
17.06.2018 01:00:00 10,4 8,8 4 2 - - ESE 0,0
17.06.2018 00:00:00 10,7 9,0 15 8 - - SE 0,0
16.06.2018 23:00:00 10,9 9,1 16 9 - - ESE 0,0
16.06.2018 22:00:00 11,0 8,6 16 9 - - SE 0,0
16.06.2018 21:00:00 11,5 8,7 21 11 - - SE 0,0
16.06.2018 20:00:00 11,9 9,1 16 9 - - SE 0,0
16.06.2018 19:00:00 11,9 9,5 16 9 - - SE 0,0
16.06.2018 18:00:00 12,4 9,0 22 12 - - SE 0,0
16.06.2018 17:00:00 13,2 9,4 21 11 - - SSE 0,0
16.06.2018 16:00:00 13,5 9,3 21 11 - - SSE 0,0
16.06.2018 15:00:00 13,8 9,9 16 9 - - ESE 0,0
16.06.2018 14:00:00 13,5 9,4 18 10 - - SSE 0,0
16.06.2018 13:00:00 13,7 8,9 18 10 - - SE 0,0
16.06.2018 12:00:00 13,6 8,9 18 10 - - SE 0,0
16.06.2018 11:00:00 12,3 7,7 22 12 - - SE 0,0
16.06.2018 10:00:00 13,7 8,1 18 10 - - SSE 0,0
16.06.2018 09:00:00 13,2 8,2 18 10 - - SE 0,0
16.06.2018 08:00:00 12,0 8,2 18 10 - - SE 0,0
16.06.2018 07:00:00 10,5 7,0 16 9 - - SE 0,0
16.06.2018 06:00:00 7,6 6,5 4 2 - - S 0,0
16.06.2018 05:00:00 7,2 6,1 4 2 - - SSE 0,0
16.06.2018 04:00:00 8,0 6,3 2 1 - - SW 0,0
16.06.2018 03:00:00 7,8 6,4 5 3 - - SSE 0,0
16.06.2018 02:00:00 8,8 6,8 5 3 - - E 0,0
16.06.2018 01:00:00 8,5 6,5 5 3 - - ESE 0,0
16.06.2018 00:00:00 7,8 6,2 8 4 - - E 0,0
15.06.2018 23:00:00 9,1 7,1 4 2 - - SSE 0,0
15.06.2018 22:00:00 10,4 7,1 2 1 - - SSE 0,0
15.06.2018 21:00:00 11,8 7,3 4 2 - - W 0,0
15.06.2018 20:00:00 12,7 6,5 13 7 - - W 0,0
15.06.2018 19:00:00 15,0 5,8 15 8 - - W 0,0
15.06.2018 18:00:00 13,6 6,9 21 11 - - W 0,0
15.06.2018 17:00:00 11,8 7,5 21 11 - - W 0,2
15.06.2018 16:00:00 16,2 8,1 22 12 - - WSW 0,0
15.06.2018 15:00:00 13,0 7,1 18 10 - - W 0,0
15.06.2018 14:00:00 15,2 7,0 24 13 - - W 0,0
15.06.2018 13:00:00 14,1 6,2 22 12 - - WSW 0,0
15.06.2018 12:00:00 12,8 7,5 24 13 - - W 0,0
15.06.2018 11:00:00 11,0 7,1 18 10 - - W 0,0
15.06.2018 10:00:00 11,1 7,7 18 10 - - W 0,8
15.06.2018 09:00:00 10,6 8,1 21 11 - - W 0,0
15.06.2018 08:00:00 11,0 8,0 18 10 - - WSW 0,0
15.06.2018 07:00:00 10,1 7,7 4 2 - - W 0,0
15.06.2018 06:00:00 9,4 7,2 9 5 - - SW 0,0
15.06.2018 05:00:00 8,9 6,8 11 6 - - WSW 0,0
15.06.2018 04:00:00 9,0 6,6 9 5 - - SW 0,0
15.06.2018 03:00:00 8,6 6,2 11 6 - - W 0,0
15.06.2018 02:00:00 9,5 6,5 16 9 - - W 0,0
15.06.2018 01:00:00 9,2 6,6 18 10 - - W 0,0
15.06.2018 00:00:00 8,5 6,1 11 6 - - W 0,0
14.06.2018 23:00:00 8,9 5,1 24 13 - - W 0,0
14.06.2018 22:00:00 9,7 5,9 18 10 46 25 W 0,0
14.06.2018 21:00:00 10,4 4,2 34 18 55 30 W 0,0
14.06.2018 20:00:00 11,3 6,9 28 15 61 33 W 0,0
14.06.2018 19:00:00 10,7 6,7 37 20 59 32 W 0,0
14.06.2018 18:00:00 10,5 6,9 42 23 74 40 W 0,2
14.06.2018 17:00:00 12,0 7,6 42 23 78 42 W 0,2
14.06.2018 16:00:00 12,3 6,5 44 24 81 44 W 0,0
14.06.2018 15:00:00 11,2 7,0 44 24 87 47 WNW 0,0
14.06.2018 14:00:00 11,3 7,6 54 29 89 48 WNW 0,2
14.06.2018 13:00:00 11,0 9,0 52 28 78 42 WNW 0,4
14.06.2018 12:00:00 11,6 10,6 44 24 68 37 WNW 0,2
14.06.2018 11:00:00 12,0 10,7 34 18 59 32 WNW 1,0
14.06.2018 10:00:00 15,0 11,2 24 13 - - SSW 0,0
14.06.2018 09:00:00 13,9 10,9 16 9 - - S 0,4
14.06.2018 08:00:00 14,2 11,0 22 12 48 26 SSW 0,2

tt = Température de l'air
td = dewpoint
ff = Vitesse du vent
fx = gusts
dd = Direction du vent
rr = Quantités de précipitations

stations d'obs. à proximité